Time;durP1;ratioP1;P1;durP2;ratioP2;P2;SDS_P1;SDS_P2;PMS_P1;PMS_P2;Temp;Humidity;BMP_temperature;BMP_pressure;BME280_temperature;BME280_humidity;BME280_pressure;Samples;Min_cycle;Max_cycle;Signal;HPM_P1;HPM_P2
2021/12/10 00:00:30;;;;;;;;;2.00;2.00;;;;;5.67;100.00;99186.72;4886961;29;44753;-90
2021/12/10 00:02:56;;;;;;;;;1.50;1.50;;;;;5.61;100.00;99171.38;4857960;29;44964;-91
2021/12/10 00:05:29;;;;;;;;;11.75;6.75;;;;;5.60;100.00;99159.13;4872237;29;45641;-89
2021/12/10 00:07:56;;;;;;;;;1.25;1.25;;;;;5.63;100.00;99154.47;4874079;29;44774;-92
2021/12/10 00:10:28;;;;;;;;;4.00;1.00;;;;;5.63;100.00;99135.19;4890510;29;44789;-90
2021/12/10 00:12:54;;;;;;;;;2.00;2.00;;;;;5.65;100.00;99126.22;4870904;29;44909;-89
2021/12/10 00:15:24;;;;;;;;;1.00;1.00;;;;;5.63;100.00;99107.06;4871866;29;45549;-90
2021/12/10 00:17:52;;;;;;;;;2.00;2.00;;;;;5.62;100.00;99101.91;4886090;29;45268;-91
2021/12/10 00:20:20;;;;;;;;;3.75;2.00;;;;;5.56;100.00;99086.53;4886178;29;44703;-90
2021/12/10 00:22:55;;;;;;;;;3.00;0.50;;;;;5.55;100.00;99067.25;4884806;29;45492;-90
2021/12/10 00:25:24;;;;;;;;;2.00;2.00;;;;;5.56;100.00;99062.84;4885358;29;45303;-91
2021/12/10 00:27:53;;;;;;;;;1.00;1.00;;;;;5.59;100.00;99055.56;4868780;29;44679;-89
2021/12/10 00:30:43;;;;;;;;;1.00;1.00;;;;;5.55;100.00;99048.00;4869207;29;45491;-89
2021/12/10 00:33:20;;;;;;;;;3.25;1.00;;;;;5.49;100.00;98998.41;4888222;29;45403;-89
2021/12/10 00:35:47;;;;;;;;;2.00;1.00;;;;;5.54;100.00;98999.75;4888499;29;45406;-89
2021/12/10 00:38:13;;;;;;;;;1.00;1.00;;;;;5.53;100.00;99010.41;4890814;29;45308;-89
2021/12/10 00:40:40;;;;;;;;;0.25;0.25;;;;;5.50;100.00;98997.44;4874455;29;44746;-90
2021/12/10 00:43:06;;;;;;;;;2.50;1.00;;;;;5.50;100.00;99000.09;4889854;29;44940;-89
2021/12/10 00:45:31;;;;;;;;;0.50;0.50;;;;;5.48;100.00;98994.09;4860386;29;45249;-90
2021/12/10 00:47:57;;;;;;;;;0.50;0.50;;;;;5.48;100.00;98999.38;4878179;29;44725;-89
2021/12/10 00:50:30;;;;;;;;;2.00;0.75;;;;;5.46;100.00;98985.47;4893854;29;44762;-89
2021/12/10 00:52:57;;;;;;;;;0.00;0.00;;;;;5.50;100.00;98997.44;4892538;29;44798;-89
2021/12/10 00:55:24;;;;;;;;;1.00;1.00;;;;;5.47;100.00;98981.91;4892337;29;45179;-89
2021/12/10 00:57:50;;;;;;;;;0.00;0.00;;;;;5.47;100.00;98960.84;4883107;29;44716;-88
2021/12/10 01:00:27;;;;;;;;;1.00;1.00;;;;;5.43;100.00;98948.84;4905472;29;44754;-89
2021/12/10 01:02:52;;;;;;;;;2.75;0.00;;;;;5.44;100.00;98953.97;4907100;28;44829;-90
2021/12/10 01:05:20;;;;;;;;;0.00;0.00;;;;;5.46;100.00;98948.59;4902924;29;45251;-89
2021/12/10 01:07:47;;;;;;;;;0.00;0.00;;;;;5.41;100.00;98931.38;4876077;29;44692;-88
2021/12/10 01:10:25;;;;;;;;;0.00;0.00;;;;;5.47;100.00;98905.53;4890890;29;44737;-89
2021/12/10 01:12:54;;;;;;;;;0.00;0.00;;;;;5.48;100.00;98902.75;4879170;29;44699;-89
2021/12/10 01:15:47;;;;;;;;;1.00;1.00;;;;;5.48;100.00;98880.88;4874198;29;46686;-89
2021/12/10 01:23:55;;;;;;;;;0.00;0.00;;;;;5.39;100.00;98861.34;4872765;29;44892;-91
2021/12/10 01:29:16;;;;;;;;;0.00;0.00;;;;;5.43;100.00;98854.03;4889773;29;44786;-91
2021/12/10 01:31:42;;;;;;;;;0.00;0.00;;;;;5.39;100.00;98848.16;4880985;29;44762;-90
2021/12/10 01:34:10;;;;;;;;;0.00;0.00;;;;;5.39;100.00;98850.78;4899050;29;44784;-91
2021/12/10 01:36:36;;;;;;;;;1.75;0.00;;;;;5.36;100.00;98846.59;4897939;29;45181;-91
2021/12/10 01:39:07;;;;;;;;;0.00;0.00;;;;;5.40;100.00;98829.59;4889049;29;45307;-86
2021/12/10 01:41:36;;;;;;;;;0.00;0.00;;;;;5.40;100.00;98834.88;4881175;29;44770;-88
2021/12/10 01:44:14;;;;;;;;;0.50;0.50;;;;;5.43;100.00;98831.19;4880999;29;45482;-88
2021/12/10 01:46:41;;;;;;;;;0.00;0.00;;;;;5.44;100.00;98824.13;4866480;29;45377;-88
2021/12/10 01:49:14;;;;;;;;;0.00;0.00;;;;;5.39;100.00;98819.19;4866405;29;45387;-90
2021/12/10 01:51:43;;;;;;;;;1.00;1.00;;;;;5.42;100.00;98818.97;4884122;29;44720;-89
2021/12/10 01:54:23;;;;;;;;;0.00;0.00;;;;;5.27;100.00;98802.56;4883612;29;45321;-89
2021/12/10 01:57:16;;;;;;;;;0.75;0.00;;;;;5.34;100.00;98798.50;4868496;29;45448;-90
2021/12/10 01:59:43;;;;;;;;;0.00;0.00;;;;;5.41;100.00;98802.34;4867068;29;44726;-88
2021/12/10 02:02:17;;;;;;;;;2.00;1.00;;;;;5.41;100.00;98790.94;4884506;29;45310;-88
2021/12/10 02:04:45;;;;;;;;;0.00;0.00;;;;;5.38;100.00;98783.31;4884318;29;44761;-88
2021/12/10 02:07:15;;;;;;;;;0.75;0.75;;;;;5.35;100.00;98771.19;4888865;29;45241;-88
2021/12/10 02:09:40;;;;;;;;;0.00;0.00;;;;;5.37;100.00;98773.72;4891409;29;44765;-88
2021/12/10 02:12:06;;;;;;;;;1.50;1.00;;;;;5.39;100.00;98777.91;4890729;29;44782;-88
2021/12/10 02:14:32;;;;;;;;;0.00;0.00;;;;;5.45;100.00;98773.97;4892519;29;44830;-88
2021/12/10 02:16:59;;;;;;;;;0.00;0.00;;;;;5.41;100.00;98754.09;4893163;29;45456;-87
2021/12/10 02:19:27;;;;;;;;;0.20;0.00;;;;;5.44;100.00;98758.28;4885800;29;45351;-88
2021/12/10 02:21:54;;;;;;;;;2.00;0.00;;;;;5.49;100.00;98761.41;4871235;29;44795;-88
2021/12/10 02:24:20;;;;;;;;;0.00;0.00;;;;;5.48;100.00;98750.03;4874559;29;45447;-88
2021/12/10 02:26:57;;;;;;;;;0.75;0.75;;;;;5.49;100.00;98738.53;4855163;29;45282;-89
2021/12/10 02:29:25;;;;;;;;;0.00;0.00;;;;;5.50;100.00;98739.38;4854071;29;44856;-88
2021/12/10 02:31:53;;;;;;;;;0.00;0.00;;;;;5.50;100.00;98734.09;4873837;29;44819;-87
2021/12/10 02:34:18;;;;;;;;;0.00;0.00;;;;;5.52;100.00;98740.09;4868979;29;45208;-88
2021/12/10 02:36:44;;;;;;;;;0.00;0.00;;;;;5.54;100.00;98740.81;4871218;29;45042;-87
2021/12/10 02:39:16;;;;;;;;;0.00;0.00;;;;;5.55;100.00;98739.84;4872962;29;44676;-88
2021/12/10 02:41:44;;;;;;;;;0.00;0.00;;;;;5.54;100.00;98732.91;4882287;29;44959;-87
2021/12/10 02:44:13;;;;;;;;;0.00;0.00;;;;;5.54;100.00;98739.00;4887422;29;44861;-88
2021/12/10 02:46:39;;;;;;;;;0.00;0.00;;;;;5.54;100.00;98736.38;4887932;29;45484;-87
2021/12/10 02:49:08;;;;;;;;;0.00;0.00;;;;;5.48;100.00;98738.66;4887077;29;44864;-89
2021/12/10 02:51:35;;;;;;;;;0.00;0.00;;;;;5.42;100.00;98734.72;4886155;29;45364;-87
2021/12/10 02:54:02;;;;;;;;;0.00;0.00;;;;;5.50;100.00;98715.66;4878841;29;44767;-85
2021/12/10 02:56:28;;;;;;;;;0.00;0.00;;;;;5.57;100.00;98706.34;4869245;29;46745;-88
2021/12/10 02:58:58;;;;;;;;;0.00;0.00;;;;;5.58;100.00;98689.56;4869529;29;45536;-85
2021/12/10 03:01:42;;;;;;;;;0.60;0.60;;;;;5.59;100.00;98699.16;4886105;29;44805;-87
2021/12/10 03:04:09;;;;;;;;;1.00;1.00;;;;;5.58;100.00;98706.22;4895258;29;44745;-93
2021/12/10 03:06:43;;;;;;;;;1.00;0.50;;;;;5.56;100.00;98697.59;4890156;29;46602;-90
2021/12/10 03:09:08;;;;;;;;;0.80;0.80;;;;;5.59;100.00;98683.34;4892583;29;44746;-90
2021/12/10 03:11:37;;;;;;;;;0.00;0.00;;;;;5.65;100.00;98680.22;4906169;29;44664;-90
2021/12/10 03:14:09;;;;;;;;;0.00;0.00;;;;;5.67;100.00;98675.69;4874688;29;44936;-91
2021/12/10 03:16:38;;;;;;;;;1.00;1.00;;;;;5.71;100.00;98679.75;4871765;29;46885;-91
2021/12/10 03:19:05;;;;;;;;;1.00;1.00;;;;;5.76;100.00;98685.47;4888033;29;44734;-91
2021/12/10 03:21:32;;;;;;;;;1.50;1.00;;;;;5.80;100.00;98678.16;4872177;29;44716;-92
2021/12/10 03:23:58;;;;;;;;;1.00;1.00;;;;;5.85;100.00;98686.50;4873261;29;44817;-93
2021/12/10 03:26:23;;;;;;;;;3.00;2.00;;;;;5.89;100.00;98688.78;4889152;29;45225;-88
2021/12/10 03:28:52;;;;;;;;;1.00;1.00;;;;;5.89;100.00;98699.31;4890497;29;44763;-89
2021/12/10 03:31:20;;;;;;;;;1.00;1.00;;;;;5.89;100.00;98698.50;4893108;29;45306;-88
2021/12/10 03:33:47;;;;;;;;;1.00;1.00;;;;;5.96;100.00;98693.63;4894813;29;44960;-90
2021/12/10 03:36:15;;;;;;;;;0.75;0.75;;;;;5.98;100.00;98689.88;4877337;29;45140;-92
2021/12/10 03:38:42;;;;;;;;;0.00;0.00;;;;;6.03;100.00;98698.25;4895584;29;44853;-91
2021/12/10 03:41:09;;;;;;;;;1.00;1.00;;;;;6.10;100.00;98704.72;4883880;29;44802;-93
2021/12/10 03:43:35;;;;;;;;;0.50;0.50;;;;;6.11;100.00;98698.47;4897765;29;44845;-90
2021/12/10 03:46:03;;;;;;;;;1.00;1.00;;;;;6.18;100.00;98707.53;4878776;29;45383;-90
2021/12/10 03:48:32;;;;;;;;;1.80;1.00;;;;;6.24;100.00;98708.88;4887106;29;44623;-90
2021/12/10 03:51:01;;;;;;;;;1.20;1.00;;;;;6.33;100.00;98712.53;4887471;29;45316;-89
2021/12/10 03:53:26;;;;;;;;;0.00;0.00;;;;;6.42;100.00;98712.59;4888095;29;45331;-90
2021/12/10 03:56:03;;;;;;;;;1.00;1.00;;;;;6.54;100.00;98707.31;4887484;29;45270;-91
2021/12/10 03:58:29;;;;;;;;;1.00;1.00;;;;;6.62;100.00;98702.19;4886793;29;44722;-90
2021/12/10 04:00:56;;;;;;;;;1.25;0.75;;;;;6.70;100.00;98710.31;4886111;29;45175;-90
2021/12/10 04:03:24;;;;;;;;;0.00;0.00;;;;;6.90;100.00;98714.75;4885686;29;45292;-88
2021/12/10 04:05:50;;;;;;;;;2.00;2.00;;;;;7.08;100.00;98720.28;4885089;29;46588;-87
2021/12/10 04:08:16;;;;;;;;;1.00;1.00;;;;;7.22;100.00;98688.28;4868311;29;44825;-86
2021/12/10 04:10:42;;;;;;;;;3.60;1.40;;;;;7.37;100.00;98715.16;4885197;29;44926;-85
2021/12/10 04:13:08;;;;;;;;;2.25;2.00;;;;;7.54;100.00;98697.84;4876752;29;44801;-85
2021/12/10 04:15:36;;;;;;;;;2.25;2.25;;;;;7.64;100.00;98697.88;4846084;29;45243;-86
2021/12/10 04:18:01;;;;;;;;;1.60;1.60;;;;;7.72;100.00;98703.31;4884254;29;44646;-86
2021/12/10 04:20:29;;;;;;;;;2.25;1.25;;;;;7.89;100.00;98684.19;4885065;29;45263;-86
2021/12/10 04:22:55;;;;;;;;;2.75;2.75;;;;;7.94;100.00;98675.84;4886294;29;44840;-86
2021/12/10 04:25:24;;;;;;;;;2.00;2.00;;;;;8.00;100.00;98699.09;4885494;29;45525;-85
2021/12/10 04:27:54;;;;;;;;;3.80;2.80;;;;;8.05;100.00;98680.16;4867785;29;44837;-86
2021/12/10 04:30:20;;;;;;;;;0.60;0.00;;;;;8.06;100.00;98677.38;4867293;29;44753;-86
2021/12/10 04:32:45;;;;;;;;;5.50;4.25;;;;;8.12;100.00;98697.13;4866142;29;45647;-86
2021/12/10 04:35:13;;;;;;;;;3.75;2.00;;;;;8.18;100.00;98680.75;4865375;29;45592;-86
2021/12/10 04:37:39;;;;;;;;;3.80;2.80;;;;;8.18;100.00;98694.81;4866941;29;45371;-86
2021/12/10 04:40:07;;;;;;;;;5.40;2.20;;;;;8.27;100.00;98690.50;4867101;29;44709;-86
2021/12/10 04:42:34;;;;;;;;;7.00;4.25;;;;;8.31;100.00;98685.75;4852007;29;44937;-85
2021/12/10 04:45:00;;;;;;;;;3.60;3.40;;;;;8.31;100.00;98689.22;4866435;29;45471;-85
2021/12/10 04:47:28;;;;;;;;;10.40;5.00;;;;;8.33;100.00;98691.75;4867568;29;44773;-86
2021/12/10 04:49:54;;;;;;;;;4.80;4.00;;;;;8.37;100.00;98693.19;4871693;29;45406;-85
2021/12/10 04:52:21;;;;;;;;;3.25;3.00;;;;;8.38;100.00;98700.97;4874185;29;45209;-86
2021/12/10 04:54:47;;;;;;;;;3.00;3.00;;;;;8.36;100.00;98694.09;4856923;29;45160;-85
2021/12/10 04:57:12;;;;;;;;;5.50;4.00;;;;;8.38;100.00;98693.03;4869447;29;45299;-85
2021/12/10 04:59:39;;;;;;;;;7.50;2.75;;;;;8.45;100.00;98696.78;4850614;29;45851;-86
2021/12/10 05:02:08;;;;;;;;;4.25;2.00;;;;;8.44;100.00;98684.53;4867122;29;45206;-86
2021/12/10 05:04:34;;;;;;;;;3.75;3.00;;;;;8.48;100.00;98693.84;4868716;29;45051;-85
2021/12/10 05:07:00;;;;;;;;;8.20;6.00;;;;;8.49;100.00;98694.69;4885410;29;44650;-86
2021/12/10 05:09:26;;;;;;;;;5.25;3.75;;;;;8.51;100.00;98692.75;4885924;29;44755;-85
2021/12/10 05:11:53;;;;;;;;;3.50;2.75;;;;;8.55;100.00;98701.22;4885395;29;45343;-85
2021/12/10 05:14:20;;;;;;;;;9.25;5.50;;;;;8.53;100.00;98704.03;4866513;29;46837;-86
2021/12/10 05:16:48;;;;;;;;;5.60;4.80;;;;;8.50;100.00;98689.25;4884240;29;44707;-85
2021/12/10 05:19:19;;;;;;;;;2.80;2.80;;;;;8.52;100.00;98702.38;4884687;29;44607;-84
2021/12/10 05:21:46;;;;;;;;;5.50;3.75;;;;;8.53;100.00;98704.03;4884687;29;44884;-84
2021/12/10 05:24:13;;;;;;;;;6.75;4.25;;;;;8.52;100.00;98723.53;4886546;29;47217;-85
2021/12/10 05:26:39;;;;;;;;;9.20;5.80;;;;;8.50;100.00;98715.72;4884394;29;44884;-85
2021/12/10 05:29:07;;;;;;;;;7.20;1.00;;;;;8.52;100.00;98728.00;4885030;29;44802;-85
2021/12/10 05:31:34;;;;;;;;;3.60;2.60;;;;;8.45;100.00;98722.41;4862339;29;44898;-84
2021/12/10 05:33:59;;;;;;;;;4.40;2.00;;;;;8.43;100.00;98743.72;4866154;29;45451;-86
2021/12/10 05:36:26;;;;;;;;;5.25;2.25;;;;;8.41;100.00;98740.38;4868764;29;45474;-85
2021/12/10 05:38:53;;;;;;;;;2.00;0.80;;;;;8.40;100.00;98745.78;4864146;29;44737;-85
2021/12/10 05:41:18;;;;;;;;;4.75;2.25;;;;;8.40;100.00;98772.25;4864672;29;44802;-86
2021/12/10 05:43:44;;;;;;;;;3.25;2.75;;;;;8.31;100.00;98760.66;4864300;29;45457;-84
2021/12/10 05:46:12;;;;;;;;;8.75;6.00;;;;;8.27;100.00;98766.34;4864352;29;45160;-85
2021/12/10 05:48:39;;;;;;;;;10.25;5.50;;;;;8.21;100.00;98759.78;4872098;29;44781;-85
2021/12/10 05:51:04;;;;;;;;;10.00;5.00;;;;;8.19;100.00;98781.09;4882797;29;44796;-84
2021/12/10 05:53:30;;;;;;;;;5.75;3.00;;;;;8.15;100.00;98778.84;4882702;29;45246;-85
2021/12/10 05:55:57;;;;;;;;;6.25;4.50;;;;;8.11;100.00;98788.03;4882482;29;44875;-84
2021/12/10 05:58:23;;;;;;;;;5.00;3.00;;;;;8.07;100.00;98789.28;4884537;29;44877;-86
2021/12/10 06:00:53;;;;;;;;;3.00;0.00;;;;;8.03;100.00;98791.38;4867235;29;44912;-85
2021/12/10 06:03:19;;;;;;;;;5.00;4.00;;;;;8.02;100.00;98794.13;4876990;29;45184;-85
2021/12/10 06:05:47;;;;;;;;;1.00;1.00;;;;;8.00;100.00;98799.56;4890518;29;45413;-85
2021/12/10 06:08:14;;;;;;;;;4.00;3.50;;;;;8.02;100.00;98802.91;4890976;29;44743;-85
2021/12/10 06:10:41;;;;;;;;;3.00;2.75;;;;;8.00;100.00;98815.41;4887815;29;45377;-84
2021/12/10 06:13:07;;;;;;;;;8.00;4.00;;;;;8.04;100.00;98810.72;4873691;29;45267;-84
2021/12/10 06:15:33;;;;;;;;;2.80;2.20;;;;;8.04;100.00;98816.84;4875036;29;45324;-86
2021/12/10 06:17:59;;;;;;;;;8.25;4.75;;;;;8.02;100.00;98810.00;4874561;29;44824;-85
2021/12/10 06:20:28;;;;;;;;;1.00;1.00;;;;;7.97;100.00;98850.88;4869389;29;44840;-86
2021/12/10 06:22:55;;;;;;;;;6.00;2.80;;;;;7.94;100.00;98853.81;4867046;29;45426;-86
2021/12/10 06:25:22;;;;;;;;;4.20;2.80;;;;;7.84;100.00;98838.88;4866825;29;44848;-86
2021/12/10 06:27:47;;;;;;;;;6.40;3.00;;;;;7.81;100.00;98841.78;4867625;29;45370;-85
2021/12/10 06:30:20;;;;;;;;;4.50;3.00;;;;;7.81;100.00;98849.72;4867915;29;44741;-82
2021/12/10 06:32:46;;;;;;;;;3.80;2.80;;;;;7.77;100.00;98848.28;4867650;29;45404;-85
2021/12/10 06:35:14;;;;;;;;;4.60;1.40;;;;;7.72;100.00;98870.66;4868251;29;45437;-84
2021/12/10 06:37:41;;;;;;;;;5.60;2.80;;;;;7.65;100.00;98876.63;4868598;29;44842;-85
2021/12/10 06:40:09;;;;;;;;;5.75;3.50;;;;;7.63;100.00;98865.31;4851594;29;44833;-85
2021/12/10 06:42:35;;;;;;;;;3.40;3.40;;;;;7.61;100.00;98883.97;4882872;29;45306;-85
2021/12/10 06:45:04;;;;;;;;;4.00;4.00;;;;;7.55;100.00;98889.78;4868098;29;44802;-85
2021/12/10 06:47:30;;;;;;;;;5.75;3.00;;;;;7.50;100.00;98899.88;4886170;29;45294;-84
2021/12/10 06:49:56;;;;;;;;;5.75;3.25;;;;;7.43;100.00;98901.34;4885424;29;44804;-85
2021/12/10 06:52:21;;;;;;;;;4.75;1.50;;;;;7.41;100.00;98892.72;4885651;29;45546;-85
2021/12/10 06:54:46;;;;;;;;;6.00;3.00;;;;;7.35;100.00;98932.84;4886466;29;44816;-88
2021/12/10 06:57:12;;;;;;;;;2.75;2.75;;;;;7.32;100.00;98926.03;4886852;29;44907;-86
2021/12/10 06:59:37;;;;;;;;;4.00;2.25;;;;;7.27;100.00;98940.56;4885045;29;45485;-85
2021/12/10 07:02:03;;;;;;;;;4.75;3.00;;;;;7.20;100.00;98924.38;4884735;29;45119;-85
2021/12/10 07:04:28;;;;;;;;;1.50;1.50;;;;;7.21;100.00;98958.59;4874670;29;44718;-85
2021/12/10 07:06:55;;;;;;;;;2.00;2.00;;;;;7.21;100.00;98934.84;4866691;29;44821;-86
2021/12/10 07:09:24;;;;;;;;;4.00;2.75;;;;;7.22;100.00;98956.78;4866247;29;45378;-85
2021/12/10 07:11:51;;;;;;;;;5.00;2.00;;;;;7.17;100.00;98936.03;4875037;29;45332;-85
2021/12/10 07:14:17;;;;;;;;;2.50;2.50;;;;;7.14;100.00;98959.22;4881674;29;44910;-85
2021/12/10 07:16:45;;;;;;;;;3.25;1.25;;;;;7.15;100.00;98982.84;4866104;29;45416;-86
2021/12/10 07:19:11;;;;;;;;;1.50;1.50;;;;;7.14;100.00;98989.09;4866688;29;45313;-84
2021/12/10 07:21:37;;;;;;;;;4.75;2.00;;;;;7.09;100.00;98986.00;4849681;29;46075;-85
2021/12/10 07:24:09;;;;;;;;;2.00;2.00;;;;;7.02;100.00;98994.53;4872971;29;44730;-91
2021/12/10 07:26:35;;;;;;;;;2.00;2.00;;;;;7.04;100.00;99000.53;4892130;29;44679;-90
2021/12/10 07:29:01;;;;;;;;;1.25;1.25;;;;;7.03;100.00;99004.97;4892684;29;44837;-91
2021/12/10 07:31:27;;;;;;;;;2.50;2.50;;;;;6.97;100.00;98986.16;4855548;29;45307;-90
2021/12/10 07:33:54;;;;;;;;;2.50;2.00;;;;;7.02;100.00;99008.59;4894403;29;44667;-91
2021/12/10 07:36:24;;;;;;;;;4.20;1.00;;;;;7.01;100.00;99033.31;4865420;29;44683;-92
2021/12/10 07:39:10;;;;;;;;;1.75;1.00;;;;;6.99;100.00;99027.28;4882299;29;44941;-92
2021/12/10 07:41:43;;;;;;;;;1.00;1.00;;;;;6.93;100.00;99027.78;4900434;29;45302;-90
2021/12/10 07:44:10;;;;;;;;;1.20;1.20;;;;;6.89;100.00;99058.88;4868158;29;44763;-90
2021/12/10 07:46:39;;;;;;;;;1.60;1.60;;;;;6.85;100.00;99052.13;4883802;29;44604;-91
2021/12/10 07:49:15;;;;;;;;;4.75;1.00;;;;;6.80;100.00;99061.38;4882591;29;44865;-90
2021/12/10 07:51:44;;;;;;;;;0.75;0.00;;;;;6.86;100.00;99085.47;4888606;29;45312;-85
2021/12/10 07:54:10;;;;;;;;;0.00;0.00;;;;;6.83;100.00;99071.72;4868271;29;44768;-87
2021/12/10 07:56:35;;;;;;;;;1.40;0.20;;;;;6.81;100.00;99024.31;4868424;29;45485;-85
2021/12/10 07:59:01;;;;;;;;;0.25;0.25;;;;;6.74;100.00;99075.91;4868372;29;44804;-85
2021/12/10 08:01:30;;;;;;;;;2.00;0.25;;;;;6.68;100.00;99056.13;4867757;29;45160;-85
2021/12/10 08:03:58;;;;;;;;;0.00;0.00;;;;;6.76;100.00;99075.78;4880778;29;45183;-85
2021/12/10 08:06:25;;;;;;;;;6.00;1.00;;;;;6.78;100.00;99064.16;4886033;29;44745;-85
2021/12/10 08:08:51;;;;;;;;;1.00;1.00;;;;;6.78;100.00;99047.47;4886891;29;44745;-85
2021/12/10 08:11:17;;;;;;;;;9.75;3.00;;;;;6.77;100.00;99078.31;4869027;29;45489;-87
2021/12/10 08:13:43;;;;;;;;;0.20;0.20;;;;;6.77;100.00;99078.31;4869406;29;45245;-89
2021/12/10 08:16:11;;;;;;;;;2.00;1.00;;;;;6.78;100.00;99081.78;4888126;29;44861;-90
2021/12/10 08:18:38;;;;;;;;;3.50;1.00;;;;;6.73;100.00;99087.41;4856585;29;44918;-91
2021/12/10 08:21:05;;;;;;;;;2.00;1.00;;;;;6.75;100.00;99105.75;4856434;29;45628;-90
2021/12/10 08:23:31;;;;;;;;;1.60;0.60;;;;;6.65;100.00;99105.63;4871110;29;44641;-92
2021/12/10 08:25:57;;;;;;;;;2.00;1.00;;;;;6.62;100.00;99124.31;4856016;29;44661;-91
2021/12/10 08:28:25;;;;;;;;;0.75;0.75;;;;;6.62;100.00;99121.69;4860044;29;44879;-90
2021/12/10 08:30:52;;;;;;;;;3.00;2.00;;;;;6.63;100.00;99133.94;4889338;29;45212;-90
2021/12/10 08:33:20;;;;;;;;;2.00;0.40;;;;;6.64;100.00;99141.75;4861017;29;44867;-91
2021/12/10 08:35:55;;;;;;;;;0.40;0.40;;;;;6.56;100.00;99124.81;4873827;29;44676;-89
2021/12/10 08:38:20;;;;;;;;;4.25;0.00;;;;;6.60;100.00;99142.09;4871666;29;45267;-90
2021/12/10 08:40:51;;;;;;;;;1.75;1.00;;;;;6.54;100.00;99145.19;4855182;29;46899;-91
2021/12/10 08:43:17;;;;;;;;;1.20;1.00;;;;;6.48;100.00;99146.50;4856178;29;44757;-90
2021/12/10 08:45:43;;;;;;;;;3.20;1.40;;;;;6.46;100.00;99144.94;4859347;29;44734;-89
2021/12/10 08:48:09;;;;;;;;;1.50;1.50;;;;;6.52;100.00;99165.56;4855251;29;44875;-90
2021/12/10 08:50:36;;;;;;;;;2.00;0.75;;;;;6.56;100.00;99178.41;4868757;29;45483;-89
2021/12/10 08:53:07;;;;;;;;;0.00;0.00;;;;;6.51;100.00;99167.38;4851111;29;44584;-90
2021/12/10 08:55:35;;;;;;;;;0.00;0.00;;;;;6.44;100.00;99160.88;4853273;29;44713;-92
2021/12/10 08:58:03;;;;;;;;;3.25;1.00;;;;;6.50;100.00;99185.94;4856147;29;44894;-92
2021/12/10 09:00:29;;;;;;;;;2.00;0.50;;;;;6.41;100.00;99182.19;4855814;29;45201;-90
2021/12/10 09:02:57;;;;;;;;;1.20;1.20;;;;;6.47;100.00;99192.28;4856937;29;44821;-90
2021/12/10 09:05:24;;;;;;;;;2.75;2.00;;;;;6.42;100.00;99192.63;4848118;29;45494;-82
2021/12/10 09:07:49;;;;;;;;;0.75;0.75;;;;;6.40;100.00;99210.38;4848068;29;44858;-85
2021/12/10 09:10:19;;;;;;;;;6.75;1.00;;;;;6.48;100.00;99212.47;4867874;29;45269;-85
2021/12/10 09:12:45;;;;;;;;;1.00;0.00;;;;;6.44;100.00;99232.09;4851716;29;45386;-84
2021/12/10 09:15:17;;;;;;;;;3.75;1.00;;;;;6.36;100.00;99193.09;4850429;29;44818;-84
2021/12/10 09:17:42;;;;;;;;;1.75;1.75;;;;;6.42;100.00;99236.63;4868927;29;44758;-85
2021/12/10 09:20:14;;;;;;;;;0.75;0.75;;;;;6.41;100.00;99232.31;4871997;29;45637;-85
2021/12/10 09:22:41;;;;;;;;;2.20;2.00;;;;;6.43;100.00;99225.13;4871811;29;44782;-86
2021/12/10 09:25:07;;;;;;;;;3.80;1.40;;;;;6.56;100.00;99251.44;4871234;29;44826;-85
2021/12/10 09:27:33;;;;;;;;;3.25;1.25;;;;;6.69;100.00;99242.50;4871078;29;45471;-84
2021/12/10 09:29:59;;;;;;;;;5.75;1.50;;;;;6.70;100.00;99257.38;4871267;29;45180;-84
2021/12/10 09:32:26;;;;;;;;;2.60;2.00;;;;;6.68;100.00;99253.19;4868527;29;44723;-84
2021/12/10 09:34:54;;;;;;;;;5.00;3.00;;;;;6.62;100.00;99251.84;4867652;29;45274;-85
2021/12/10 09:37:21;;;;;;;;;3.50;0.75;;;;;6.66;100.00;99268.25;4880126;29;44955;-86
2021/12/10 09:39:49;;;;;;;;;3.00;0.00;;;;;6.64;100.00;99272.84;4869565;29;46331;-85
2021/12/10 09:42:16;;;;;;;;;4.80;2.40;;;;;6.61;100.00;99262.50;4869304;29;44845;-85
2021/12/10 09:44:42;;;;;;;;;3.25;2.75;;;;;6.63;100.00;99271.16;4865606;29;44896;-84
2021/12/10 09:47:14;;;;;;;;;4.00;1.50;;;;;6.71;100.00;99287.25;4883793;29;45037;-85
2021/12/10 09:49:41;;;;;;;;;2.00;2.00;;;;;6.75;100.00;99267.59;4880353;29;45010;-84
2021/12/10 09:52:07;;;;;;;;;4.00;2.40;;;;;6.78;100.00;99299.03;4870163;29;44960;-85
2021/12/10 09:54:34;;;;;;;;;5.40;2.60;;;;;6.81;100.00;99300.59;4866766;29;45026;-86
2021/12/10 09:57:13;;;;;;;;;3.75;2.00;;;;;6.88;100.00;99305.31;4872637;29;44796;-86
2021/12/10 09:59:41;;;;;;;;;4.00;2.75;;;;;6.92;100.00;99316.50;4871121;29;46725;-85
2021/12/10 10:02:08;;;;;;;;;4.20;3.60;;;;;6.95;100.00;99301.25;4865074;29;44805;-85
2021/12/10 10:04:36;;;;;;;;;4.00;2.60;;;;;7.01;100.00;99333.41;4882799;29;45229;-83
2021/12/10 10:07:11;;;;;;;;;4.00;4.00;;;;;7.11;100.00;99315.97;4882597;29;44792;-85
2021/12/10 10:09:37;;;;;;;;;4.00;2.00;;;;;7.15;100.00;99315.56;4876039;29;45611;-89
2021/12/10 10:12:08;;;;;;;;;3.00;1.75;;;;;7.22;100.00;99303.59;4870667;29;44657;-88
2021/12/10 10:14:34;;;;;;;;;2.60;0.80;;;;;7.30;100.00;99303.03;4868892;29;44795;-89
2021/12/10 10:17:01;;;;;;;;;6.50;5.00;;;;;7.33;100.00;99326.56;4867694;29;44785;-86
2021/12/10 10:19:26;;;;;;;;;2.75;1.00;;;;;7.36;100.00;99325.50;4882418;29;46772;-89
2021/12/10 10:21:56;;;;;;;;;2.00;2.00;;;;;7.38;100.00;99331.50;4849726;29;45284;-89
2021/12/10 10:24:27;;;;;;;;;3.60;2.00;;;;;7.40;100.00;99340.16;4866074;29;44793;-86
2021/12/10 10:27:06;;;;;;;;;5.25;4.00;;;;;7.19;100.00;99346.09;4852670;29;45274;-86
2021/12/10 10:29:35;;;;;;;;;5.00;4.00;;;;;7.30;100.00;99347.06;4885007;29;45271;-88
2021/12/10 10:32:10;;;;;;;;;7.00;3.40;;;;;7.33;100.00;99366.19;4883833;29;44678;-86
2021/12/10 10:34:51;;;;;;;;;1.00;1.00;;;;;7.47;100.00;99351.94;4866027;29;44810;-89
2021/12/10 10:37:17;;;;;;;;;2.20;2.20;;;;;7.48;100.00;99354.44;4866442;29;45408;-88
2021/12/10 10:39:44;;;;;;;;;3.60;2.80;;;;;7.55;100.00;99378.63;4865217;29;45270;-84
2021/12/10 10:42:20;;;;;;;;;7.00;2.80;;;;;7.57;100.00;99378.50;4875407;29;45240;-83
2021/12/10 10:44:47;;;;;;;;;5.60;3.20;;;;;7.51;100.00;99345.44;4880148;29;45316;-88
2021/12/10 10:47:13;;;;;;;;;6.25;3.75;;;;;7.56;100.00;99353.03;4873512;29;44872;-89
2021/12/10 10:49:47;;;;;;;;;4.00;2.75;;;;;7.60;100.00;99397.59;4879022;29;45106;-82
2021/12/10 10:52:28;;;;;;;;;2.20;2.00;;;;;7.52;100.00;99362.97;4887997;29;44921;-89
2021/12/10 10:54:55;;;;;;;;;7.00;1.80;;;;;7.59;100.00;99369.50;4859838;29;44656;-88
2021/12/10 10:57:29;;;;;;;;;4.25;2.00;;;;;7.67;100.00;99374.19;4877444;29;44857;-89
2021/12/10 11:00:09;;;;;;;;;5.00;3.00;;;;;7.69;100.00;99375.75;4877829;29;45416;-89
2021/12/10 11:02:49;;;;;;;;;3.20;2.00;;;;;7.77;100.00;99377.78;4873800;29;44842;-86
2021/12/10 11:05:14;;;;;;;;;5.40;3.80;;;;;7.73;100.00;99378.97;4856623;29;44742;-85
2021/12/10 11:07:51;;;;;;;;;3.75;0.25;;;;;7.76;100.00;99391.13;4876481;29;45187;-86
2021/12/10 11:10:39;;;;;;;;;0.00;0.00;;;;;7.82;100.00;99391.50;4885732;29;45243;-88
2021/12/10 11:13:20;;;;;;;;;1.00;1.00;;;;;7.77;100.00;99388.38;4870846;29;44912;-84
2021/12/10 11:15:57;;;;;;;;;3.80;2.00;;;;;7.85;100.00;99393.91;4876148;29;44798;-86
2021/12/10 11:18:22;;;;;;;;;5.00;4.50;;;;;7.82;100.00;99414.47;4891538;29;44850;-87
2021/12/10 11:20:48;;;;;;;;;4.50;0.00;;;;;7.84;100.00;99404.63;4880521;29;45321;-86
2021/12/10 11:23:16;;;;;;;;;7.50;4.00;;;;;7.86;100.00;99418.56;4887861;29;44779;-86
2021/12/10 11:25:46;;;;;;;;;3.20;3.20;;;;;7.81;100.00;99465.66;4877088;29;45496;-86
2021/12/10 11:28:22;;;;;;;;;2.50;1.50;;;;;7.74;100.00;99454.72;4874123;29;44850;-88
2021/12/10 11:31:02;;;;;;;;;0.00;0.00;;;;;7.73;100.00;99437.13;4869728;29;45235;-89
2021/12/10 11:33:29;;;;;;;;;4.40;2.40;;;;;7.80;100.00;99429.59;4870300;29;44739;-88
2021/12/10 11:36:05;;;;;;;;;4.60;1.80;;;;;7.87;100.00;99423.72;4870928;29;44619;-88
2021/12/10 11:38:33;;;;;;;;;3.25;2.25;;;;;7.91;100.00;99427.81;4885314;29;44718;-88
2021/12/10 11:41:00;;;;;;;;;4.50;4.50;;;;;7.95;100.00;99429.25;4873534;29;45658;-88
2021/12/10 11:48:37;;;;;;;;;0.00;0.00;;;;;7.88;100.00;99446.56;4880240;29;45481;-83
2021/12/10 11:51:12;;;;;;;;;3.50;2.00;;;;;7.90;100.00;99486.09;4879886;29;46588;-83
2021/12/10 11:53:51;;;;;;;;;4.00;2.00;;;;;7.89;100.00;99471.22;4873297;29;45395;-82